sensor_id;sensor_type;location;lat;lon;timestamp;pressure;altitude;pressure_sealevel;temperature
61977;BMP280;45905;50.570;10.428;2023-04-24T00:02:15;96713.00;;;12.11
61977;BMP280;45905;50.570;10.428;2023-04-24T00:04:42;96708.31;;;12.08
61977;BMP280;45905;50.570;10.428;2023-04-24T00:07:12;96700.13;;;12.06
61977;BMP280;45905;50.570;10.428;2023-04-24T00:09:40;96712.22;;;12.04
61977;BMP280;45905;50.570;10.428;2023-04-24T00:12:08;96702.84;;;11.99
61977;BMP280;45905;50.570;10.428;2023-04-24T00:14:35;96695.78;;;11.94
61977;BMP280;45905;50.570;10.428;2023-04-24T00:17:03;96702.81;;;11.92
61977;BMP280;45905;50.570;10.428;2023-04-24T00:19:30;96696.38;;;11.90
61977;BMP280;45905;50.570;10.428;2023-04-24T00:21:58;96694.22;;;11.87
61977;BMP280;45905;50.570;10.428;2023-04-24T00:24:25;96691.06;;;11.85
61977;BMP280;45905;50.570;10.428;2023-04-24T00:26:52;96694.59;;;11.84
61977;BMP280;45905;50.570;10.428;2023-04-24T00:29:20;96682.09;;;11.82
61977;BMP280;45905;50.570;10.428;2023-04-24T00:31:47;96694.97;;;11.81
61977;BMP280;45905;50.570;10.428;2023-04-24T00:34:15;96691.84;;;11.79
61977;BMP280;45905;50.570;10.428;2023-04-24T00:36:43;96693.00;;;11.77
61977;BMP280;45905;50.570;10.428;2023-04-24T00:39:10;96687.16;;;11.76
61977;BMP280;45905;50.570;10.428;2023-04-24T00:41:37;96683.81;;;11.76
61977;BMP280;45905;50.570;10.428;2023-04-24T00:44:05;96688.13;;;11.75
61977;BMP280;45905;50.570;10.428;2023-04-24T00:46:32;96682.25;;;11.68
61977;BMP280;45905;50.570;10.428;2023-04-24T00:49:00;96687.91;;;11.70
61977;BMP280;45905;50.570;10.428;2023-04-24T00:51:27;96680.09;;;11.65
61977;BMP280;45905;50.570;10.428;2023-04-24T00:53:54;96682.84;;;11.64
61977;BMP280;45905;50.570;10.428;2023-04-24T00:56:22;96682.44;;;11.67
61977;BMP280;45905;50.570;10.428;2023-04-24T00:58:50;96677.97;;;11.69
61977;BMP280;45905;50.570;10.428;2023-04-24T01:01:22;96673.47;;;11.71
61977;BMP280;45905;50.570;10.428;2023-04-24T01:03:51;96670.75;;;11.72
61977;BMP280;45905;50.570;10.428;2023-04-24T01:06:20;96673.09;;;11.74
61977;BMP280;45905;50.570;10.428;2023-04-24T01:08:49;96673.09;;;11.74
61977;BMP280;45905;50.570;10.428;2023-04-24T01:11:16;96665.28;;;11.75
61977;BMP280;45905;50.570;10.428;2023-04-24T01:13:45;96676.22;;;11.76
61977;BMP280;45905;50.570;10.428;2023-04-24T01:16:13;96669.41;;;11.76
61977;BMP280;45905;50.570;10.428;2023-04-24T01:18:41;96676.22;;;11.76
61977;BMP280;45905;50.570;10.428;2023-04-24T01:21:15;96671.13;;;11.76
61977;BMP280;45905;50.570;10.428;2023-04-24T01:23:44;96677.19;;;11.75
61977;BMP280;45905;50.570;10.428;2023-04-24T01:26:14;96673.69;;;11.76
61977;BMP280;45905;50.570;10.428;2023-04-24T01:28:42;96680.13;;;11.72
61977;BMP280;45905;50.570;10.428;2023-04-24T01:31:09;96673.47;;;11.71
61977;BMP280;45905;50.570;10.428;2023-04-24T01:33:37;96673.47;;;11.71
61977;BMP280;45905;50.570;10.428;2023-04-24T01:36:05;96680.91;;;11.72
61977;BMP280;45905;50.570;10.428;2023-04-24T01:38:33;96669.75;;;11.73
61977;BMP280;45905;50.570;10.428;2023-04-24T01:41:00;96670.53;;;11.74
61977;BMP280;45905;50.570;10.428;2023-04-24T01:43:28;96675.44;;;11.75
61977;BMP280;45905;50.570;10.428;2023-04-24T01:45:57;96679.53;;;11.76
61977;BMP280;45905;50.570;10.428;2023-04-24T01:48:25;96674.28;;;11.78
61977;BMP280;45905;50.570;10.428;2023-04-24T01:50:52;96671.75;;;11.78
61977;BMP280;45905;50.570;10.428;2023-04-24T01:53:20;96673.13;;;11.80
61977;BMP280;45905;50.570;10.428;2023-04-24T01:55:47;96654.59;;;11.80
61977;BMP280;45905;50.570;10.428;2023-04-24T01:58:15;96656.72;;;11.76
61977;BMP280;45905;50.570;10.428;2023-04-24T02:00:42;96670.78;;;11.79
61977;BMP280;45905;50.570;10.428;2023-04-24T02:03:10;96671.31;;;11.74
61977;BMP280;45905;50.570;10.428;2023-04-24T02:05:37;96667.44;;;11.72
61977;BMP280;45905;50.570;10.428;2023-04-24T02:08:04;96677.78;;;11.70
61977;BMP280;45905;50.570;10.428;2023-04-24T02:10:32;96673.06;;;11.67
61977;BMP280;45905;50.570;10.428;2023-04-24T02:13:01;96659.22;;;11.70
61977;BMP280;45905;50.570;10.428;2023-04-24T02:15:28;96651.44;;;11.71
61977;BMP280;45905;50.570;10.428;2023-04-24T02:17:55;96664.13;;;11.71
61977;BMP280;45905;50.570;10.428;2023-04-24T02:20:23;96656.69;;;11.70
61977;BMP280;45905;50.570;10.428;2023-04-24T02:22:52;96654.34;;;11.68
61977;BMP280;45905;50.570;10.428;2023-04-24T02:25:20;96647.31;;;11.64
61977;BMP280;45905;50.570;10.428;2023-04-24T02:27:47;96650.06;;;11.63
61977;BMP280;45905;50.570;10.428;2023-04-24T02:30:14;96658.63;;;11.62
61977;BMP280;45905;50.570;10.428;2023-04-24T02:32:41;96650.84;;;11.63
61977;BMP280;45905;50.570;10.428;2023-04-24T02:35:10;96643.22;;;11.63
61977;BMP280;45905;50.570;10.428;2023-04-24T02:37:38;96642.63;;;11.61
61977;BMP280;45905;50.570;10.428;2023-04-24T02:40:06;96639.31;;;11.61
61977;BMP280;45905;50.570;10.428;2023-04-24T02:42:33;96644.75;;;11.58
61977;BMP280;45905;50.570;10.428;2023-04-24T02:45:01;96642.22;;;11.58
61977;BMP280;45905;50.570;10.428;2023-04-24T02:47:29;96644.16;;;11.56
61977;BMP280;45905;50.570;10.428;2023-04-24T02:49:56;96647.69;;;11.55
61977;BMP280;45905;50.570;10.428;2023-04-24T02:52:23;96639.84;;;11.50
61977;BMP280;45905;50.570;10.428;2023-04-24T02:54:51;96639.25;;;11.48
61977;BMP280;45905;50.570;10.428;2023-04-24T02:57:18;96632.03;;;11.45
61977;BMP280;45905;50.570;10.428;2023-04-24T02:59:46;96637.31;;;11.44
61977;BMP280;45905;50.570;10.428;2023-04-24T03:02:13;96633.97;;;11.37
61977;BMP280;45905;50.570;10.428;2023-04-24T03:04:40;96628.28;;;11.35
61977;BMP280;45905;50.570;10.428;2023-04-24T03:07:10;96623.41;;;11.33
61977;BMP280;45905;50.570;10.428;2023-04-24T03:09:37;96618.16;;;11.35
61977;BMP280;45905;50.570;10.428;2023-04-24T03:12:05;96618.16;;;11.35
61977;BMP280;45905;50.570;10.428;2023-04-24T03:14:32;96616.22;;;11.37
61977;BMP280;45905;50.570;10.428;2023-04-24T03:17:00;96626.94;;;11.39
61977;BMP280;45905;50.570;10.428;2023-04-24T03:19:27;96616.22;;;11.37
61977;BMP280;45905;50.570;10.428;2023-04-24T03:22:03;96609.78;;;11.34
61977;BMP280;45905;50.570;10.428;2023-04-24T03:24:31;96612.50;;;11.33
61977;BMP280;45905;50.570;10.428;2023-04-24T03:26:59;96612.66;;;11.31
61977;BMP280;45905;50.570;10.428;2023-04-24T03:30:07;96608.94;;;11.27
61977;BMP280;45905;50.570;10.428;2023-04-24T03:32:44;96615.94;;;11.25
61977;BMP280;45905;50.570;10.428;2023-04-24T03:35:14;96614.38;;;11.24
61977;BMP280;45905;50.570;10.428;2023-04-24T03:37:41;96611.84;;;11.24
61977;BMP280;45905;50.570;10.428;2023-04-24T03:40:35;96612.81;;;11.24
61977;BMP280;45905;50.570;10.428;2023-04-24T03:43:07;96601.50;;;11.20
61977;BMP280;45905;50.570;10.428;2023-04-24T03:45:36;96609.06;;;11.13
61977;BMP280;45905;50.570;10.428;2023-04-24T03:48:03;96615.88;;;11.13
61977;BMP280;45905;50.570;10.428;2023-04-24T03:50:32;96613.16;;;11.14
61977;BMP280;45905;50.570;10.428;2023-04-24T03:53:00;96609.25;;;11.12
61977;BMP280;45905;50.570;10.428;2023-04-24T03:55:36;96617.84;;;11.17
61977;BMP280;45905;50.570;10.428;2023-04-24T03:58:03;96610.25;;;11.17
61977;BMP280;45905;50.570;10.428;2023-04-24T04:00:31;96604.03;;;11.20
61977;BMP280;45905;50.570;10.428;2023-04-24T04:03:25;96605.00;;;11.19
61977;BMP280;45905;50.570;10.428;2023-04-24T04:05:53;96602.41;;;11.12
61977;BMP280;45905;50.570;10.428;2023-04-24T04:08:21;96604.16;;;11.12
61977;BMP280;45905;50.570;10.428;2023-04-24T04:10:48;96601.44;;;11.07
61977;BMP280;45905;50.570;10.428;2023-04-24T04:13:15;96598.91;;;11.07
61977;BMP280;45905;50.570;10.428;2023-04-24T04:15:43;96599.88;;;11.06
61977;BMP280;45905;50.570;10.428;2023-04-24T04:18:10;96603.00;;;11.08
61977;BMP280;45905;50.570;10.428;2023-04-24T04:20:38;96602.03;;;11.09
61977;BMP280;45905;50.570;10.428;2023-04-24T04:23:05;96596.56;;;11.05
61977;BMP280;45905;50.570;10.428;2023-04-24T04:25:49;96596.34;;;11.01
61977;BMP280;45905;50.570;10.428;2023-04-24T04:28:20;96597.13;;;11.01
61977;BMP280;45905;50.570;10.428;2023-04-24T04:30:48;96601.00;;;10.97
61977;BMP280;45905;50.570;10.428;2023-04-24T04:33:16;96609.19;;;10.99
61977;BMP280;45905;50.570;10.428;2023-04-24T04:35:44;96612.66;;;10.92
61977;BMP280;45905;50.570;10.428;2023-04-24T04:38:12;96613.47;;;10.92
61977;BMP280;45905;50.570;10.428;2023-04-24T04:40:59;96617.13;;;10.90
61977;BMP280;45905;50.570;10.428;2023-04-24T04:43:29;96641.88;;;10.88
61977;BMP280;45905;50.570;10.428;2023-04-24T04:45:58;96644.00;;;10.85
61977;BMP280;45905;50.570;10.428;2023-04-24T04:48:46;96646.72;;;10.83
61977;BMP280;45905;50.570;10.428;2023-04-24T04:51:14;96648.47;;;10.83
61977;BMP280;45905;50.570;10.428;2023-04-24T04:53:41;96645.94;;;10.83
61977;BMP280;45905;50.570;10.428;2023-04-24T04:56:08;96655.09;;;10.84
61977;BMP280;45905;50.570;10.428;2023-04-24T04:58:40;96645.75;;;10.84
61977;BMP280;45905;50.570;10.428;2023-04-24T05:01:11;96644.00;;;10.85
61977;BMP280;45905;50.570;10.428;2023-04-24T05:03:42;96655.66;;;10.86
61977;BMP280;45905;50.570;10.428;2023-04-24T05:06:12;96649.06;;;10.85
61977;BMP280;45905;50.570;10.428;2023-04-24T05:08:40;96658.22;;;10.86
61977;BMP280;45905;50.570;10.428;2023-04-24T05:11:12;96653.94;;;10.86
61977;BMP280;45905;50.570;10.428;2023-04-24T05:13:41;96649.63;;;10.86
61977;BMP280;45905;50.570;10.428;2023-04-24T05:16:13;96648.47;;;10.83
61977;BMP280;45905;50.570;10.428;2023-04-24T05:18:40;96653.13;;;10.86
61977;BMP280;45905;50.570;10.428;2023-04-24T05:21:10;96652.78;;;10.88
61977;BMP280;45905;50.570;10.428;2023-04-24T05:23:40;96661.34;;;10.87
61977;BMP280;45905;50.570;10.428;2023-04-24T05:26:08;96649.63;;;10.86
61977;BMP280;45905;50.570;10.428;2023-04-24T05:28:35;96647.72;;;10.88
61977;BMP280;45905;50.570;10.428;2023-04-24T05:31:08;96652.97;;;10.87
61977;BMP280;45905;50.570;10.428;2023-04-24T05:33:36;96645.94;;;10.83
61977;BMP280;45905;50.570;10.428;2023-04-24T05:36:03;96659.56;;;10.82
61977;BMP280;45905;50.570;10.428;2023-04-24T05:38:32;96660.16;;;10.84
61977;BMP280;45905;50.570;10.428;2023-04-24T05:41:00;96657.63;;;10.84
61977;BMP280;45905;50.570;10.428;2023-04-24T05:43:27;96662.09;;;10.82
61977;BMP280;45905;50.570;10.428;2023-04-24T05:45:54;96670.88;;;10.86
61977;BMP280;45905;50.570;10.428;2023-04-24T05:48:22;96665.25;;;10.90
61977;BMP280;45905;50.570;10.428;2023-04-24T05:50:51;96659.41;;;10.89
61977;BMP280;45905;50.570;10.428;2023-04-24T05:53:19;96666.06;;;10.90
61977;BMP280;45905;50.570;10.428;2023-04-24T05:55:47;96669.97;;;10.93
61977;BMP280;45905;50.570;10.428;2023-04-24T05:58:14;96671.91;;;10.91
61977;BMP280;45905;50.570;10.428;2023-04-24T06:00:42;96672.25;;;10.88
61977;BMP280;45905;50.570;10.428;2023-04-24T06:03:11;96674.97;;;10.86
61977;BMP280;45905;50.570;10.428;2023-04-24T06:05:40;96666.41;;;10.87
61977;BMP280;45905;50.570;10.428;2023-04-24T06:08:07;96674.25;;;10.92
61977;BMP280;45905;50.570;10.428;2023-04-24T06:10:39;96677.75;;;10.91
61977;BMP280;45905;50.570;10.428;2023-04-24T06:13:08;96675.03;;;10.93
61977;BMP280;45905;50.570;10.428;2023-04-24T06:15:38;96679.13;;;10.94
61977;BMP280;45905;50.570;10.428;2023-04-24T06:18:17;96683.22;;;10.95
61977;BMP280;45905;50.570;10.428;2023-04-24T06:20:46;96681.28;;;10.97
61977;BMP280;45905;50.570;10.428;2023-04-24T06:23:13;96683.63;;;10.98
61977;BMP280;45905;50.570;10.428;2023-04-24T06:25:40;96681.88;;;10.99
61977;BMP280;45905;50.570;10.428;2023-04-24T06:28:08;96684.59;;;10.97
61977;BMP280;45905;50.570;10.428;2023-04-24T06:30:36;96691.22;;;10.98
61977;BMP280;45905;50.570;10.428;2023-04-24T06:33:03;96692.97;;;10.98
61977;BMP280;45905;50.570;10.428;2023-04-24T06:35:46;96697.69;;;11.01
61977;BMP280;45905;50.570;10.428;2023-04-24T06:38:13;96690.13;;;11.07
61977;BMP280;45905;50.570;10.428;2023-04-24T06:40:40;96697.19;;;11.11
61977;BMP280;45905;50.570;10.428;2023-04-24T06:43:07;96695.81;;;11.15
61977;BMP280;45905;50.570;10.428;2023-04-24T06:45:34;96698.16;;;11.17
61977;BMP280;45905;50.570;10.428;2023-04-24T06:48:01;96701.69;;;11.22
61977;BMP280;45905;50.570;10.428;2023-04-24T06:50:29;96713.59;;;11.22
61977;BMP280;45905;50.570;10.428;2023-04-24T06:52:56;96709.13;;;11.24
61977;BMP280;45905;50.570;10.428;2023-04-24T06:55:23;96716.19;;;11.28
61977;BMP280;45905;50.570;10.428;2023-04-24T06:57:50;96719.31;;;11.30
61977;BMP280;45905;50.570;10.428;2023-04-24T07:00:18;96719.13;;;11.31
61977;BMP280;45905;50.570;10.428;2023-04-24T07:02:45;96718.78;;;11.34
61977;BMP280;45905;50.570;10.428;2023-04-24T07:05:13;96714.66;;;11.33
61977;BMP280;45905;50.570;10.428;2023-04-24T07:07:42;96721.31;;;11.34
61977;BMP280;45905;50.570;10.428;2023-04-24T07:10:10;96710.38;;;11.34
61977;BMP280;45905;50.570;10.428;2023-04-24T07:12:37;96721.13;;;11.36
61977;BMP280;45905;50.570;10.428;2023-04-24T07:15:06;96726.97;;;11.36
61977;BMP280;45905;50.570;10.428;2023-04-24T07:17:34;96719.72;;;11.33
61977;BMP280;45905;50.570;10.428;2023-04-24T07:20:02;96712.91;;;11.34
61977;BMP280;45905;50.570;10.428;2023-04-24T07:22:30;96719.72;;;11.33
61977;BMP280;45905;50.570;10.428;2023-04-24T07:24:57;96704.94;;;11.37
61977;BMP280;45905;50.570;10.428;2023-04-24T07:27:25;96713.47;;;11.29
61977;BMP280;45905;50.570;10.428;2023-04-24T07:29:52;96707.59;;;11.29
61977;BMP280;45905;50.570;10.428;2023-04-24T07:32:20;96710.94;;;11.29
61977;BMP280;45905;50.570;10.428;2023-04-24T07:34:47;96722.03;;;11.28
61977;BMP280;45905;50.570;10.428;2023-04-24T07:37:15;96716.34;;;11.26
61977;BMP280;45905;50.570;10.428;2023-04-24T07:39:42;96714.78;;;11.25
61977;BMP280;45905;50.570;10.428;2023-04-24T07:42:10;96729.63;;;11.28
61977;BMP280;45905;50.570;10.428;2023-04-24T07:44:38;96727.47;;;11.25
61977;BMP280;45905;50.570;10.428;2023-04-24T07:47:05;96745.03;;;11.27
61977;BMP280;45905;50.570;10.428;2023-04-24T07:49:33;96739.97;;;11.27
61977;BMP280;45905;50.570;10.428;2023-04-24T07:52:01;96737.41;;;11.27
61977;BMP280;45905;50.570;10.428;2023-04-24T07:54:29;96732.94;;;11.29
61977;BMP280;45905;50.570;10.428;2023-04-24T07:56:56;96734.53;;;11.30
61977;BMP280;45905;50.570;10.428;2023-04-24T07:59:23;96732.84;;;11.37
61977;BMP280;45905;50.570;10.428;2023-04-24T08:01:51;96728.56;;;11.44
61977;BMP280;45905;50.570;10.428;2023-04-24T08:04:19;96732.69;;;11.51
61977;BMP280;45905;50.570;10.428;2023-04-24T08:06:48;96735.31;;;11.63
61977;BMP280;45905;50.570;10.428;2023-04-24T08:09:15;96736.50;;;11.74
61977;BMP280;45905;50.570;10.428;2023-04-24T08:11:43;96740.66;;;11.81
61977;BMP280;45905;50.570;10.428;2023-04-24T08:14:11;96739.50;;;11.90
61977;BMP280;45905;50.570;10.428;2023-04-24T08:16:40;96747.69;;;11.92
61977;BMP280;45905;50.570;10.428;2023-04-24T08:19:08;96751.00;;;11.86
61977;BMP280;45905;50.570;10.428;2023-04-24T08:21:35;96755.25;;;11.79
61977;BMP280;45905;50.570;10.428;2023-04-24T08:24:02;96743.31;;;11.73
61977;BMP280;45905;50.570;10.428;2023-04-24T08:26:34;96748.25;;;11.81
61977;BMP280;45905;50.570;10.428;2023-04-24T08:29:01;96753.91;;;11.83
61977;BMP280;45905;50.570;10.428;2023-04-24T08:31:29;96755.09;;;11.81
61977;BMP280;45905;50.570;10.428;2023-04-24T08:33:56;96756.66;;;11.82
61977;BMP280;45905;50.570;10.428;2023-04-24T08:36:24;96766.53;;;11.70
61977;BMP280;45905;50.570;10.428;2023-04-24T08:39:09;96754.59;;;11.64
61977;BMP280;45905;50.570;10.428;2023-04-24T08:41:37;96757.72;;;11.60
61977;BMP280;45905;50.570;10.428;2023-04-24T08:44:05;96761.03;;;11.61
61977;BMP280;45905;50.570;10.428;2023-04-24T08:46:37;96743.50;;;11.65
61977;BMP280;45905;50.570;10.428;2023-04-24T08:49:05;96758.53;;;11.73
61977;BMP280;45905;50.570;10.428;2023-04-24T08:51:33;96757.22;;;11.83
61977;BMP280;45905;50.570;10.428;2023-04-24T08:54:01;96752.38;;;11.88
61977;BMP280;45905;50.570;10.428;2023-04-24T08:56:30;96751.59;;;11.94
61977;BMP280;45905;50.570;10.428;2023-04-24T08:59:00;96766.84;;;11.94
61977;BMP280;45905;50.570;10.428;2023-04-24T09:01:28;96772.72;;;12.01
61977;BMP280;45905;50.570;10.428;2023-04-24T09:03:56;96766.69;;;12.08
61977;BMP280;45905;50.570;10.428;2023-04-24T09:06:25;96763.16;;;12.09
61977;BMP280;45905;50.570;10.428;2023-04-24T09:08:54;96749.34;;;12.18
61977;BMP280;45905;50.570;10.428;2023-04-24T09:11:25;96759.91;;;12.28
61977;BMP280;45905;50.570;10.428;2023-04-24T09:13:54;96758.94;;;12.35
61977;BMP280;45905;50.570;10.428;2023-04-24T09:16:22;96760.50;;;12.30
61977;BMP280;45905;50.570;10.428;2023-04-24T09:18:51;96768.47;;;12.20
61977;BMP280;45905;50.570;10.428;2023-04-24T09:21:22;96780.03;;;12.23
61977;BMP280;45905;50.570;10.428;2023-04-24T09:24:18;96777.31;;;12.31
61977;BMP280;45905;50.570;10.428;2023-04-24T09:26:46;96778.66;;;12.27
61977;BMP280;45905;50.570;10.428;2023-04-24T09:29:18;96785.69;;;12.25
61977;BMP280;45905;50.570;10.428;2023-04-24T09:31:46;96781.75;;;12.16
61977;BMP280;45905;50.570;10.428;2023-04-24T09:34:13;96774.53;;;12.13
61977;BMP280;45905;50.570;10.428;2023-04-24T09:36:42;96772.16;;;12.12
61977;BMP280;45905;50.570;10.428;2023-04-24T09:39:15;96782.75;;;12.21
61977;BMP280;45905;50.570;10.428;2023-04-24T09:41:55;96790.97;;;12.30
61977;BMP280;45905;50.570;10.428;2023-04-24T09:44:27;96786.50;;;12.38
61977;BMP280;45905;50.570;10.428;2023-04-24T09:47:00;96774.81;;;12.50
61977;BMP280;45905;50.570;10.428;2023-04-24T09:49:30;96776.81;;;12.67
61977;BMP280;45905;50.570;10.428;2023-04-24T09:52:07;96769.78;;;12.81
61977;BMP280;45905;50.570;10.428;2023-04-24T09:54:35;96780.16;;;12.93
61977;BMP280;45905;50.570;10.428;2023-04-24T09:57:08;96776.81;;;12.92
61977;BMP280;45905;50.570;10.428;2023-04-24T09:59:42;96785.59;;;12.96
61977;BMP280;45905;50.570;10.428;2023-04-24T10:02:20;96784.06;;;13.01
61977;BMP280;45905;50.570;10.428;2023-04-24T10:04:57;96786.38;;;13.16
61977;BMP280;45905;50.570;10.428;2023-04-24T10:07:26;96787.38;;;13.27
61977;BMP280;45905;50.570;10.428;2023-04-24T10:09:54;96789.31;;;13.38
61977;BMP280;45905;50.570;10.428;2023-04-24T10:12:22;96788.53;;;13.37
61977;BMP280;45905;50.570;10.428;2023-04-24T10:14:50;96778.16;;;13.39
61977;BMP280;45905;50.570;10.428;2023-04-24T10:17:18;96794.00;;;13.41
61977;BMP280;45905;50.570;10.428;2023-04-24T10:19:47;96783.03;;;13.47
61977;BMP280;45905;50.570;10.428;2023-04-24T10:22:16;96792.81;;;13.56
61977;BMP280;45905;50.570;10.428;2023-04-24T10:24:45;96800.22;;;13.57
61977;BMP280;45905;50.570;10.428;2023-04-24T10:27:13;96796.16;;;13.44
61977;BMP280;45905;50.570;10.428;2023-04-24T10:29:43;96806.72;;;13.41
61977;BMP280;45905;50.570;10.428;2023-04-24T10:32:11;96815.53;;;13.32
61977;BMP280;45905;50.570;10.428;2023-04-24T10:34:39;96822.19;;;13.27
61977;BMP280;45905;50.570;10.428;2023-04-24T10:37:06;96829.81;;;13.20
61977;BMP280;45905;50.570;10.428;2023-04-24T10:39:33;96833.53;;;13.12
61977;BMP280;45905;50.570;10.428;2023-04-24T10:42:02;96830.38;;;12.97
61977;BMP280;45905;50.570;10.428;2023-04-24T10:44:40;96842.31;;;12.90
61977;BMP280;45905;50.570;10.428;2023-04-24T10:47:13;96834.13;;;12.95
61977;BMP280;45905;50.570;10.428;2023-04-24T10:49:41;96836.66;;;13.01
61977;BMP280;45905;50.570;10.428;2023-04-24T10:52:09;96840.75;;;13.02
61977;BMP280;45905;50.570;10.428;2023-04-24T10:54:44;96849.16;;;12.83
61977;BMP280;45905;50.570;10.428;2023-04-24T11:00:13;96859.28;;;12.71
61977;BMP280;45905;50.570;10.428;2023-04-24T11:02:41;96867.22;;;12.55
61977;BMP280;45905;50.570;10.428;2023-04-24T11:05:17;96875.94;;;12.34
61977;BMP280;45905;50.570;10.428;2023-04-24T11:10:50;96887.47;;;12.36
61977;BMP280;45905;50.570;10.428;2023-04-24T11:16:33;96876.91;;;12.33
61977;BMP280;45905;50.570;10.428;2023-04-24T11:19:17;96891.38;;;12.39
61977;BMP280;45905;50.570;10.428;2023-04-24T11:22:03;96890.06;;;12.42
61977;BMP280;45905;50.570;10.428;2023-04-24T11:27:18;96881.84;;;12.40
61977;BMP280;45905;50.570;10.428;2023-04-24T11:32:37;96870.53;;;12.49
61977;BMP280;45905;50.570;10.428;2023-04-24T11:35:19;96874.66;;;12.50
61977;BMP280;45905;50.570;10.428;2023-04-24T11:37:53;96872.13;;;12.57
61977;BMP280;45905;50.570;10.428;2023-04-24T11:40:23;96865.88;;;12.59
61977;BMP280;45905;50.570;10.428;2023-04-24T11:42:53;96882.72;;;12.66
61977;BMP280;45905;50.570;10.428;2023-04-24T11:45:27;96883.44;;;12.60
61977;BMP280;45905;50.570;10.428;2023-04-24T11:47:55;96881.31;;;12.58
61977;BMP280;45905;50.570;10.428;2023-04-24T11:50:25;96876.59;;;12.48
61977;BMP280;45905;50.570;10.428;2023-04-24T11:52:53;96880.28;;;12.52
61977;BMP280;45905;50.570;10.428;2023-04-24T11:57:50;96886.66;;;12.75
61977;BMP280;45905;50.570;10.428;2023-04-24T12:00:22;96883.94;;;12.83
61977;BMP280;45905;50.570;10.428;2023-04-24T12:02:50;96882.19;;;12.83
61977;BMP280;45905;50.570;10.428;2023-04-24T12:05:22;96883.56;;;12.92
61977;BMP280;45905;50.570;10.428;2023-04-24T12:07:50;96891.38;;;12.97
61977;BMP280;45905;50.570;10.428;2023-04-24T12:10:23;96889.47;;;13.12
61977;BMP280;45905;50.570;10.428;2023-04-24T12:12:51;96886.53;;;13.15
61977;BMP280;45905;50.570;10.428;2023-04-24T12:15:20;96875.38;;;13.22
61977;BMP280;45905;50.570;10.428;2023-04-24T12:17:50;96889.66;;;13.35
61977;BMP280;45905;50.570;10.428;2023-04-24T12:20:28;96870.31;;;13.47
61977;BMP280;45905;50.570;10.428;2023-04-24T12:22:58;96876.75;;;13.50
61977;BMP280;45905;50.570;10.428;2023-04-24T12:25:33;96888.69;;;13.49
61977;BMP280;45905;50.570;10.428;2023-04-24T12:30:33;96896.91;;;13.19
61977;BMP280;45905;50.570;10.428;2023-04-24T12:33:02;96896.50;;;13.16
61977;BMP280;45905;50.570;10.428;2023-04-24T12:35:32;96898.06;;;13.11
61977;BMP280;45905;50.570;10.428;2023-04-24T12:38:15;96903.91;;;13.05
61977;BMP280;45905;50.570;10.428;2023-04-24T12:40:43;96897.28;;;13.04
61977;BMP280;45905;50.570;10.428;2023-04-24T12:43:16;96894.53;;;12.99
61977;BMP280;45905;50.570;10.428;2023-04-24T12:45:43;96909.41;;;13.02
61977;BMP280;45905;50.570;10.428;2023-04-24T12:48:12;96913.47;;;12.84
61977;BMP280;45905;50.570;10.428;2023-04-24T12:50:41;96943.41;;;12.55
61977;BMP280;45905;50.570;10.428;2023-04-24T12:53:12;96944.34;;;12.41
61977;BMP280;45905;50.570;10.428;2023-04-24T12:55:40;96948.91;;;12.19
61977;BMP280;45905;50.570;10.428;2023-04-24T12:58:07;96956.03;;;12.03
61977;BMP280;45905;50.570;10.428;2023-04-24T13:00:34;96946.81;;;11.96
61977;BMP280;45905;50.570;10.428;2023-04-24T13:03:03;96945.47;;;12.00
61977;BMP280;45905;50.570;10.428;2023-04-24T13:05:30;96951.13;;;12.01
61977;BMP280;45905;50.570;10.428;2023-04-24T13:07:58;96942.09;;;11.93
61977;BMP280;45905;50.570;10.428;2023-04-24T13:10:25;96955.75;;;11.92
61977;BMP280;45905;50.570;10.428;2023-04-24T13:12:52;96973.06;;;11.82
61977;BMP280;45905;50.570;10.428;2023-04-24T13:15:19;96975.00;;;11.53
61977;BMP280;45905;50.570;10.428;2023-04-24T13:17:46;96973.16;;;11.47
61977;BMP280;45905;50.570;10.428;2023-04-24T13:20:14;96965.63;;;11.54
61977;BMP280;45905;50.570;10.428;2023-04-24T13:22:41;96957.16;;;11.67
61977;BMP280;45905;50.570;10.428;2023-04-24T13:25:08;96950.22;;;11.82
61977;BMP280;45905;50.570;10.428;2023-04-24T13:27:38;96957.94;;;11.95
61977;BMP280;45905;50.570;10.428;2023-04-24T13:30:07;96952.56;;;12.10
61977;BMP280;45905;50.570;10.428;2023-04-24T13:32:35;96945.25;;;12.28
61977;BMP280;45905;50.570;10.428;2023-04-24T13:35:04;96943.94;;;12.44
61977;BMP280;45905;50.570;10.428;2023-04-24T13:37:31;96944.81;;;12.58
61977;BMP280;45905;50.570;10.428;2023-04-24T13:39:58;96939.16;;;12.62
61977;BMP280;45905;50.570;10.428;2023-04-24T13:42:25;96926.13;;;12.71
61977;BMP280;45905;50.570;10.428;2023-04-24T13:44:53;96916.19;;;12.82
61977;BMP280;45905;50.570;10.428;2023-04-24T13:47:20;96916.81;;;12.97
61977;BMP280;45905;50.570;10.428;2023-04-24T13:49:48;96929.00;;;13.20
61977;BMP280;45905;50.570;10.428;2023-04-24T13:52:15;96910.41;;;13.39
61977;BMP280;45905;50.570;10.428;2023-04-24T13:54:42;96918.44;;;13.61
61977;BMP280;45905;50.570;10.428;2023-04-24T13:57:09;96915.28;;;13.78
61977;BMP280;45905;50.570;10.428;2023-04-24T13:59:36;96924.28;;;13.68
61977;BMP280;45905;50.570;10.428;2023-04-24T14:02:04;96912.16;;;13.57
61977;BMP280;45905;50.570;10.428;2023-04-24T14:04:31;96917.81;;;13.66
61977;BMP280;45905;50.570;10.428;2023-04-24T14:06:59;96920.41;;;13.85
61977;BMP280;45905;50.570;10.428;2023-04-24T14:09:26;96924.72;;;13.91
61977;BMP280;45905;50.570;10.428;2023-04-24T14:11:53;96924.50;;;13.86
61977;BMP280;45905;50.570;10.428;2023-04-24T14:14:20;96935.28;;;13.88
61977;BMP280;45905;50.570;10.428;2023-04-24T14:16:48;96944.44;;;13.76
61977;BMP280;45905;50.570;10.428;2023-04-24T14:19:15;96972.84;;;13.48
61977;BMP280;45905;50.570;10.428;2023-04-24T14:21:42;96981.53;;;13.01
61977;BMP280;45905;50.570;10.428;2023-04-24T14:24:09;96981.22;;;12.71
61977;BMP280;45905;50.570;10.428;2023-04-24T14:26:37;96980.56;;;12.56
61977;BMP280;45905;50.570;10.428;2023-04-24T14:29:04;96982.19;;;12.37